hero-logo

Top 15 Knowers of YHOO Yahoo Inc - 2017-07-21

Rank Fund Result (K)
1 Canyon Capital Advisors Llc $23,548
2 Jet Capital Investors L P $21,530
3 Redwood Capital Management Llc $11,610
4 Passport Capital Llc $10,344
5 Governors Lane Lp $5,688
6 Leucadia National Corp $4,471
7 Carlson Capital L P $4,379
8 Guardian Point Capital Lp $4,295
9 Naya Capital Management Uk Ltd $2,923
10 Paloma Partners Management Co $2,047
11 Squarepoint Ops Llc $1,987
12 Btg Pactual Global Asset Management Ltd $1,834
13 Southpoint Capital Advisors Lp $1,548
14 Glg Llc $1,494
15 Incline Global Management Llc $1,376
Price Chart and News From Google Finance for YHOO Yahoo Inc
Owner Date Shares Change Price Change Result (K)
Acrospire Investment Management Llc 2017-03-31 -300 $7.74 $-2
Advantage Investment Management Llc 2017-03-31 0 $7.74 $0
Aidennlair Capital Management Lp 2017-03-31 89,532 $7.74 $692
Aimz Investment Advisors Llc 2017-03-31 0 $7.74 $0
Alpine Partners Vi Llc 2017-03-31 54,126 $7.74 $418
Amalgamated Bank 2017-03-31 3,503 $7.74 $27
Amf Pensionsforsakring Ab 2017-03-31 149,483 $7.74 $1,156
Ancient Art L P 2017-03-31 0 $7.74 $0
Ancora Advisors Llc 2017-03-31 0 $7.74 $0
Aperio Group Llc 2017-03-31 14,315 $7.74 $110
Arrow Financial Corp 2017-03-31 0 $7.74 $0
Assenagon Asset Management S A 2017-03-31 -707,884 $7.74 $-5,479
Assetmark Inc 2017-03-31 13 $7.74 $0
Asturias Capital Llc 2017-03-31 -1,352,280 $7.74 $-10,466
Bahl Gaynor Inc 2017-03-31 0 $7.74 $0
Banco Btg Pactual S A 2017-03-31 30,000 $7.74 $232
Blair William Co Il 2017-03-31 -1,565 $7.74 $-12
Boston Private Wealth Llc 2017-03-31 80 $7.74 $0
Brown Brothers Harriman Co 2017-03-31 387 $7.74 $2
B S Pension Fund Trustee Ltd Acting For The British Steel P 2017-03-31 -1,325 $7.74 $-10
Btg Pactual Global Asset Management Ltd 2017-03-31 236,979 $7.74 $1,834
California State Teachers Retirement System 2017-03-31 -78,200 $7.74 $-605
Canyon Capital Advisors Llc 2017-03-31 3,042,397 $7.74 $23,548
Capital Guardian Trust Co 2017-03-31 -1,133 $7.74 $-8
Carlson Capital L P 2017-03-31 565,845 $7.74 $4,379
Carve Capitalab 2017-03-31 0 $7.74 $0
Catamount Wealth Management 2017-03-31 0 $7.74 $0
Claar Advisors Llc 2017-03-31 40,000 $7.74 $309
Cmt Asset Management Ltd 2017-03-31 -35,585 $7.74 $-275
Cmt Trading Llc 2017-03-31 20,777 $7.74 $160
Coastland Capital Llc 2017-03-31 0 $7.74 $0
Compagnie Lombard Odier Scma 2017-03-31 -4,500 $7.74 $-34
Congress Asset Management Co Ma 2017-03-31 -33 $7.74 $0
Cornerstone Capital Management Holdings Llc 2017-03-31 -10,469 $7.74 $-81
Css Llc Il 2017-03-31 -8,000 $7.74 $-61
D A Davidson Co 2017-03-31 770 $7.74 $5
Davide Leone Partners Investment Co Llp 2017-03-31 0 $7.74 $0
Dorazio Associates Inc 2017-03-31 0 $7.74 $0
Dorsal Capital Management Llc 2017-03-31 -300,000 $7.74 $-2,322
Duquesne Family Office Llc 2017-03-31 -483,100 $7.74 $-3,739
Earnest Partners Llc 2017-03-31 -400 $7.74 $-3
Edmond De Rothschild Holding S A 2017-03-31 -3,000 $7.74 $-23
Eminence Capital Lp 2017-03-31 -1,710,861 $7.74 $-13,242
Envestnet Asset Management Inc 2017-03-31 -1,403 $7.74 $-10
Falcon Edge Capital Lp 2017-03-31 -704,000 $7.74 $-5,448
Fdo Partners Llc 2017-03-31 119,124 $7.74 $922
Fieldpoint Private Advisors Inc 2017-03-31 25 $7.74 $0
First Pacific Advisors Llc 2017-03-31 51,580 $7.74 $399
First Republic Investment Management Inc 2017-03-31 1,868 $7.74 $14
Fir Tree Inc 2017-03-31 -1,242,300 $7.74 $-9,615
Florence Capital Advisors Llc 2017-03-31 -500 $7.74 $-3
Frontfour Capital Group Llc 2017-03-31 -54,559 $7.74 $-422
Glassman Wealth Services 2017-03-31 3 $7.74 $0
Glg Llc 2017-03-31 193,143 $7.74 $1,494
Glg Partners Lp 2017-03-31 8,245 $7.74 $63
Goldentree Asset Management Lp 2017-03-31 27,825 $7.74 $215
Gotham Asset Management Llc 2017-03-31 2,382 $7.74 $18
Governors Lane Lp 2017-03-31 734,985 $7.74 $5,688
Greenlight Capital Inc 2017-03-31 0 $7.74 $0
Greenwich Wealth Management Llc 2017-03-31 -1,314,046 $7.74 $-10,170
Group One Trading L P 2017-03-31 11,752 $7.74 $90
Gsa Capital Partners Llp 2017-03-31 21,485 $7.74 $166
Guardian Point Capital Lp 2017-03-31 555,000 $7.74 $4,295
Guggenheim Capital Llc 2017-03-31 27,536 $7.74 $213
Hanson Doremus Investment Management 2017-03-31 -50 $7.74 $0
Highlander Capital Management Llc 2017-03-31 1,000 $7.74 $7
Horizon Kinetics Llc 2017-03-31 -8,625 $7.74 $-66
Ifp Advisors Inc 2017-03-31 -727 $7.74 $-5
Iht Wealth Management Llc 2017-03-31 -200 $7.74 $-1
Incline Global Management Llc 2017-03-31 177,783 $7.74 $1,376
Intellectus Partners Llc 2017-03-31 -650 $7.74 $-5
Jane Street Group Llc 2017-03-31 8,120 $7.74 $62
Jet Capital Investors L P 2017-03-31 2,781,750 $7.74 $21,530
Kelly Lawrence W Associates Inc Ca 2017-03-31 8 $7.74 $0
Kentucky Retirement Systems 2017-03-31 -7,418 $7.74 $-57
Kentucky Retirement Systems Insurance Trust Fund 2017-03-31 -4,683 $7.74 $-36
Krilogy Financial Llc 2017-03-31 0 $7.74 $0
Ladenburg Thalmann Financial Services Inc 2017-03-31 -300 $7.74 $-2
Leucadia National Corp 2017-03-31 577,727 $7.74 $4,471
Marathon Trading Investment Management Llc 2017-03-31 -39,572 $7.74 $-306
Marco Investment Management Llc 2017-03-31 -1,500 $7.74 $-11
Mason Capital Management Llc 2017-03-31 117,519 $7.74 $909
Mason Street Advisors Llc 2017-03-31 1,226 $7.74 $9
Meadow Creek Investment Management Llc 2017-03-31 1,600 $7.74 $12
Mv Capital Management Inc 2017-03-31 0 $7.74 $0
Nantahala Capital Management Llc 2017-03-31 67,649 $7.74 $523
Naya Capital Management Uk Ltd 2017-03-31 377,664 $7.74 $2,923
Neuburgh Advisers Llc 2017-03-31 2,200 $7.74 $17
Nitorum Capital L P 2017-03-31 22,234 $7.74 $172
Northwestern Mutual Investment Management Company Llc 2017-03-31 76,643 $7.74 $593
Northwestern Mutual Wealth Management Co 2017-03-31 -955 $7.74 $-7
Numina Capital Management Llc 2017-03-31 -552,448 $7.74 $-4,275
Omni Partners Llp 2017-03-31 -70,902 $7.74 $-548
Owl Creek Asset Management L P 2017-03-31 -1,435,646 $7.74 $-11,111
Pacific Center For Financial Services 2017-03-31 0 $7.74 $0
Pacific Grove Capital Lp 2017-03-31 68,631 $7.74 $531
Paloma Partners Management Co 2017-03-31 264,518 $7.74 $2,047
Passport Capital Llc 2017-03-31 1,336,563 $7.74 $10,344
Patriot Financial Group Insurance Agency Llc 2017-03-31 -50 $7.74 $0
Perigon Wealth Management Llc 2017-03-31 0 $7.74 $0
Piedmont Investment Advisors Llc 2017-03-31 1,594 $7.74 $12
Proficio Capital Partners Llc 2017-03-31 79 $7.74 $0
Proxima Capital Management Llc 2017-03-31 -83,800 $7.74 $-648
Public Employees Retirement System Of Ohio 2017-03-31 0 $7.74 $0
Raymond James Associates 2017-03-31 -4,326 $7.74 $-33
Rbf Capital Llc 2017-03-31 0 $7.74 $0
Redwood Capital Management Llc 2017-03-31 1,500,000 $7.74 $11,610
Richard Bernstein Advisors Llc 2017-03-31 0 $7.74 $0
Riverhead Capital Management Llc 2017-03-31 3,326 $7.74 $25
Salem Investment Counselors Inc 2017-03-31 -87 $7.74 $0
Scotia Capital Inc 2017-03-31 -7,563 $7.74 $-58
Seven Eight Capital Lp 2017-03-31 -23,700 $7.74 $-183
Southpoint Capital Advisors Lp 2017-03-31 200,000 $7.74 $1,548
Sowell Financial Services Llc 2017-03-31 -1,790 $7.74 $-13
Springowl Associates Llc 2017-03-31 -35,000 $7.74 $-270
Squarepoint Ops Llc 2017-03-31 256,822 $7.74 $1,987
Srs Capital Advisors Inc 2017-03-31 0 $7.74 $0
Starboard Value Lp 2017-03-31 0 $7.74 $0
Sterling Capital Management Llc 2017-03-31 192 $7.74 $1
Sterling Investment Advisors Ltd 2017-03-31 225 $7.74 $1
Stifel Financial Corp 2017-03-31 11,981 $7.74 $92
Strategic Investment Management Llc 2017-03-31 -25,906 $7.74 $-200
Tam Capital Management Inc 2017-03-31 144,835 $7.74 $1,121
Tci Fund Management Ltd 2017-03-31 0 $7.74 $0
Tortoise Investment Management Llc 2017-03-31 0 $7.74 $0
Twin Securities Inc 2017-03-31 126,975 $7.74 $982
Tyers Asset Management Llc 2017-03-31 2,800 $7.74 $21
United Capital Financial Advisers Llc 2017-03-31 1,020 $7.74 $7
Usa Financial Portformulas Corp 2017-03-31 -190,909 $7.74 $-1,477
Veritable L P 2017-03-31 60 $7.74 $0
Voloridge Investment Management Llc 2017-03-31 66,872 $7.74 $517
Walleye Trading Llc 2017-03-31 75,815 $7.74 $586
Wall Street Access Asset Management Llc 2017-03-31 400 $7.74 $3
Westside Investment Management Inc 2017-03-31 -200 $7.74 $-1
Yorkbridge Wealth Partners Llc 2017-03-31 -1,000 $7.74 $-7